ADDS METAR Data INFO
IDs: Format: Raw Decoded Include TAF

Data at: 0022 UTC 15 Dec 2017

KGOO 150020Z AUTO 14004KT 10SM CLR 14/05 A3016 RMK AO1
KGOO 150000Z AUTO 13003KT 10SM CLR 15/05 A3016 RMK AO1
KGOO 142340Z AUTO 15004KT 10SM CLR 15/05 A3015 RMK AO1
KGOO 142320Z AUTO 17004KT 10SM CLR 17/05 A3015 RMK AO1
KGOO 142300Z AUTO 00000KT 10SM CLR 17/04 A3015 RMK AO1
KGOO 142240Z AUTO 29003KT 10SM CLR 17/04 A3014 RMK AO1
KGOO 142220Z AUTO 29003KT 10SM CLR 18/04 A3014 RMK AO1
KGOO 142200Z AUTO 31005KT 10SM CLR 18/04 A3014 RMK AO1
KGOO 142140Z AUTO 28005KT 10SM CLR 19/04 A3013 RMK AO1
KGOO 142120Z AUTO 30004KT 10SM CLR 20/03 A3013 RMK AO1
KGOO 142100Z AUTO 29003KT 10SM CLR 21/02 A3013 RMK AO1
KGOO 142040Z AUTO 31003KT 10SM CLR 21/M01 A3014 RMK AO1
KGOO 142020Z AUTO 30003KT 10SM CLR 22/M04 A3015 RMK AO1
KGOO 142000Z AUTO 35003KT 10SM CLR 21/M03 A3015 RMK AO1
KGOO 141940Z AUTO 33004KT 10SM CLR 20/00 A3016 RMK AO1
KGOO 141920Z AUTO 31003KT 10SM CLR 20/M03 A3016 RMK AO1
KGOO 141900Z AUTO 30004KT 10SM CLR 20/M05 A3016 RMK AO1
KGOO 141840Z AUTO 00000KT 10SM CLR 20/M05 A3016 RMK AO1
KGOO 141820Z AUTO 00000KT 10SM CLR 20/M07 A3016 RMK AO1
KGOO 141800Z AUTO 00000KT 10SM CLR 20/M08 A3016 RMK AO1
KGOO 141740Z AUTO 00000KT 10SM CLR 19/M04 A3016 RMK AO1
KGOO 141720Z AUTO 00000KT 10SM CLR 19/M07 A3015 RMK AO1
KGOO 141700Z AUTO 00000KT 10SM CLR 18/M07 A3015 RMK AO1
KGOO 141640Z AUTO 35004KT 10SM CLR 18/M11 A3014 RMK AO1
KGOO 141620Z AUTO 01003KT 10SM CLR 16/M09 A3014 RMK AO1
KGOO 141600Z AUTO 04006KT 10SM CLR 14/M09 A3013 RMK AO1
KGOO 141540Z AUTO 04005KT 10SM CLR 15/M11 A3013 RMK AO1
KGOO 141520Z AUTO 02005KT 10SM CLR 14/M10 A3013 RMK AO1
KGOO 141500Z AUTO 03003KT 10SM CLR 15/M11 A3012 RMK AO1
KGOO 141440Z AUTO 02004KT 10SM CLR 16/M12 A3012 RMK AO1
KGOO 141420Z AUTO 04004KT 10SM CLR 15/M10 A3011 RMK AO1
KGOO 141400Z AUTO 03004KT 10SM CLR 17/M12 A3010 RMK AO1
KGOO 141340Z AUTO 00000KT 10SM CLR 17/M12 A3010 RMK AO1
KGOO 141320Z AUTO 05003KT 10SM CLR 15/M10 A3010 RMK AO1
KGOO 141300Z AUTO 06007KT 10SM CLR 15/M09 A3009 RMK AO1
KGOO 141240Z AUTO 08007KT 10SM CLR 16/M11 A3010 RMK AO1
KGOO 141220Z AUTO 09009KT 10SM CLR 15/M10 A3010 RMK AO1
KGOO 141200Z AUTO 09009KT 10SM CLR 16/M11 A3010 RMK AO1
KGOO 141140Z AUTO 09010KT 10SM CLR 15/M10 A3010 RMK AO1
KGOO 141120Z AUTO 09010KT 10SM CLR 16/M11 A3010 RMK AO1
KGOO 141100Z AUTO 10006KT 10SM CLR 16/M11 A3010 RMK AO1
KGOO 141040Z AUTO 00000KT 10SM CLR 15/M11 A3011 RMK AO1
KGOO 141020Z AUTO 00000KT 10SM CLR 16/M11 A3011 RMK AO1
KGOO 141000Z AUTO 00000KT 10SM CLR 15/M10 A3011 RMK AO1
KGOO 140940Z AUTO 02003KT 10SM CLR 13/M08 A3011 RMK AO1
KGOO 140920Z AUTO 01004KT 10SM CLR 13/M09 A3011 RMK AO1
KGOO 140900Z AUTO 32004KT 10SM CLR 14/M09 A3011 RMK AO1
KGOO 140840Z AUTO 32003KT 10SM CLR 12/M08 A3011 RMK AO1
KGOO 140820Z AUTO 00000KT 10SM CLR 15/M09 A3011 RMK AO1
KGOO 140800Z AUTO 08004KT 10SM CLR 16/M09 A3012 RMK AO1
KGOO 140740Z AUTO 09005KT 10SM CLR 17/M09 A3013 RMK AO1
KGOO 140720Z AUTO 09009KT 10SM CLR 17/M09 A3013 RMK AO1
KGOO 140700Z AUTO 08011KT 10SM CLR 17/M10 A3013 RMK AO1
KGOO 140640Z AUTO 07006KT 10SM CLR 15/M13 A3013 RMK AO1
KGOO 140620Z AUTO 00000KT 10SM CLR 16/M14 A3013 RMK AO1
KGOO 140600Z AUTO 05006KT 10SM CLR 17/M15 A3013 RMK AO1
KGOO 140540Z AUTO 06005KT 10SM CLR 16/M16 A3012 RMK AO1
KGOO 140520Z AUTO 03006KT 10SM CLR 18/M16 A3012 RMK AO1
KGOO 140500Z AUTO 03004KT 10SM CLR 18/M16 A3012 RMK AO1
KGOO 140440Z AUTO 05005KT 10SM CLR 19/M16 A3012 RMK AO1
KGOO 140420Z AUTO 05006KT 10SM CLR 18/M14 A3011 RMK AO1
KGOO 140400Z AUTO 04005KT 10SM CLR 17/M11 A3011 RMK AO1
KGOO 140340Z AUTO 00000KT 10SM CLR 14/M02 A3010 RMK AO1
KGOO 140320Z AUTO 00000KT 10SM CLR 13/00 A3010 RMK AO1
KGOO 140300Z AUTO 00000KT 10SM CLR 12/00 A3010 RMK AO1
KGOO 140240Z AUTO 34003KT 10SM CLR 10/02 A3010 RMK AO1
KGOO 140220Z AUTO 33004KT 10SM CLR 11/02 A3010 RMK AO1
KGOO 140200Z AUTO 32003KT 10SM CLR 11/03 A3010 RMK AO1
KGOO 140140Z AUTO 00000KT 10SM CLR 13/02 A3010 RMK AO1
KGOO 140120Z AUTO 10003KT 10SM CLR 13/02 A3010 RMK AO1
KGOO 140100Z AUTO 00000KT 10SM CLR 13/02 A3009 RMK AO1
KGOO 140040Z AUTO 09005KT 10SM CLR 13/03 A3010 RMK AO1
KGOO 140020Z AUTO 00000KT 10SM CLR 14/02 A3010 RMK AO1
KGOO 140000Z AUTO 00000KT 10SM CLR 15/01 A3010 RMK AO1
KGOO 132340Z AUTO 00000KT 10SM CLR 16/00 A3010 RMK AO1
KGOO 132320Z AUTO 00000KT 10SM CLR 17/M02 A3010 RMK AO1
KGOO 132300Z AUTO 00000KT 10SM CLR 17/M03 A3010 RMK AO1
KGOO 132240Z AUTO 31003KT 10SM CLR 17/M03 A3010 RMK AO1
KGOO 132220Z AUTO 32003KT 10SM CLR 17/M03 A3010 RMK AO1
KGOO 132200Z AUTO 31004KT 10SM CLR 17/M04 A3010 RMK AO1
KGOO 132140Z AUTO 31004KT 10SM CLR 17/M04 A3011 RMK AO1
KGOO 132120Z AUTO 00000KT 10SM CLR 17/M04 A3011 RMK AO1
KGOO 132100Z AUTO 29004KT 10SM CLR 17/M03 A3012 RMK AO1
KGOO 132040Z AUTO 30004KT 10SM CLR 16/M04 A3013 RMK AO1
KGOO 132020Z AUTO 00000KT 10SM CLR 15/M04 A3014 RMK AO1
KGOO 132000Z AUTO 29003KT 10SM CLR 15/M03 A3015 RMK AO1
KGOO 131940Z AUTO 29004KT 10SM CLR 15/M02 A3017 RMK AO1
KGOO 131920Z AUTO 31003KT 10SM CLR 15/M02 A3018 RMK AO1
KGOO 131900Z AUTO 00000KT 10SM CLR 14/M03 A3018 RMK AO1
KGOO 131840Z AUTO 00000KT 10SM CLR 13/M04 A3019 RMK AO1
KGOO 131820Z AUTO 31003KT 10SM CLR 13/M07 A3019 RMK AO1
KGOO 131800Z AUTO 32004KT 10SM CLR 14/M09 A3019 RMK AO1
KGOO 131740Z AUTO 29003KT 10SM CLR 15/M09 A3019 RMK AO1
KGOO 131720Z AUTO 00000KT 10SM CLR 13/M03 A3019 RMK AO1
KGOO 131700Z AUTO 00000KT 10SM CLR 13/M08 A3019 RMK AO1
KGOO 131640Z AUTO 00000KT 10SM CLR 12/M09 A3019 RMK AO1
KGOO 131620Z AUTO 00000KT 10SM CLR 10/M09 A3019 RMK AO1
KGOO 131600Z AUTO 00000KT 10SM CLR 09/M09 A3019 RMK AO1
KGOO 131540Z AUTO 00000KT 10SM CLR 09/M08 A3019 RMK AO1
KGOO 131520Z AUTO 00000KT 10SM CLR 10/M09 A3019 RMK AO1
KGOO 131500Z AUTO 00000KT 10SM CLR 09/M08 A3019 RMK AO1
KGOO 131440Z AUTO 11003KT 10SM CLR 11/M08 A3019 RMK AO1
KGOO 131420Z AUTO 11004KT 10SM CLR 12/M07 A3019 RMK AO1
KGOO 131400Z AUTO 06003KT 10SM CLR 08/M09 A3020 RMK AO1
KGOO 131340Z AUTO 00000KT 10SM CLR 09/M11 A3020 RMK AO1
KGOO 131320Z AUTO 31003KT 10SM CLR 09/M10 A3020 RMK AO1
KGOO 131300Z AUTO 00000KT 10SM CLR 09/M12 A3019 RMK AO1
KGOO 131240Z AUTO 00000KT 10SM CLR 10/M12 A3019 RMK AO1